Time;durP1;ratioP1;P1;durP2;ratioP2;P2;SDS_P1;SDS_P2;PMS_P1;PMS_P2;Temp;Humidity;BMP_temperature;BMP_pressure;BME280_temperature;BME280_humidity;BME280_pressure;Samples;Min_cycle;Max_cycle;Signal;HPM_P1;HPM_P2
2022/12/07 00:01:53;;;;;;;;;;;;;;;7.84;54.74;98529.59;4486864;32;20022;-84
2022/12/07 00:04:18;;;;;;;;;;;;;;;7.66;55.16;98526.94;4488069;32;19995;-84
2022/12/07 00:06:45;;;;;;;;;;;;;;;7.75;54.99;98524.81;4488052;31;19980;-84
2022/12/07 00:09:11;;;;;;;;;;;;;;;7.12;56.42;98528.53;4486866;32;20285;-84
2022/12/07 00:11:36;;;;;;;;;;;;;;;7.29;56.03;98520.78;4486841;32;20047;-84
2022/12/07 00:14:03;;;;;;;;;;;;;;;7.56;55.28;98520.44;4473618;32;19986;-84
2022/12/07 00:16:29;;;;;;;;;;;;;;;7.56;55.25;98516.97;4487848;31;19980;-84
2022/12/07 00:18:55;;;;;;;;;;;;;;;7.54;55.18;98514.41;4487905;31;19971;-84
2022/12/07 00:21:21;;;;;;;;;;;;;;;7.40;55.44;98504.56;4486557;32;20018;-84
2022/12/07 00:23:47;;;;;;;;;;;;;;;7.41;55.45;98508.88;4486718;32;19998;-84
2022/12/07 00:26:13;;;;;;;;;;;;;;;7.33;55.53;98512.78;4486735;32;20307;-84
2022/12/07 00:28:38;;;;;;;;;;;;;;;7.57;54.90;98501.19;4487970;31;19975;-84
2022/12/07 00:31:05;;;;;;;;;;;;;;;7.63;54.63;98502.62;4487939;32;20006;-84
2022/12/07 00:33:31;;;;;;;;;;;;;;;7.64;54.31;98499.94;4486715;32;19990;-84
2022/12/07 00:35:57;;;;;;;;;;;;;;;7.42;54.65;98501.91;4486578;32;20228;-84
2022/12/07 00:38:22;;;;;;;;;;;;;;;7.27;54.79;98503.44;4487899;31;19987;-84
2022/12/07 00:40:53;;;;;;;;;;;;;;;7.54;54.12;98508.34;4487883;31;20262;-84
2022/12/07 00:43:19;;;;;;;;;;;;;;;7.57;53.85;98498.56;4487684;31;19987;-84
2022/12/07 00:45:44;;;;;;;;;;;;;;;7.56;53.73;98499.47;4486403;32;20340;-84
2022/12/07 00:48:09;;;;;;;;;;;;;;;7.62;53.50;98495.72;4487336;32;19987;-84
2022/12/07 00:50:34;;;;;;;;;;;;;;;7.64;53.40;98501.72;4487579;32;19976;-83
2022/12/07 00:53:00;;;;;;;;;;;;;;;7.59;53.31;98499.34;4487669;32;19986;-83
2022/12/07 00:55:25;;;;;;;;;;;;;;;7.65;53.25;98508.69;4487482;32;20311;-82
2022/12/07 00:57:50;;;;;;;;;;;;;;;7.44;53.42;98507.91;4487661;32;20287;-83
2022/12/07 01:00:15;;;;;;;;;;;;;;;7.57;53.24;98493.31;4487667;32;19968;-83
2022/12/07 01:02:41;;;;;;;;;;;;;;;7.59;53.22;98490.59;4487656;32;19972;-83
2022/12/07 01:05:06;;;;;;;;;;;;;;;7.59;53.15;98487.97;4487624;32;19976;-83
2022/12/07 01:07:31;;;;;;;;;;;;;;;7.64;52.94;98480.75;4486154;32;20032;-83
2022/12/07 01:09:57;;;;;;;;;;;;;;;7.66;53.04;98485.00;4487295;32;19991;-83
2022/12/07 01:12:22;;;;;;;;;;;;;;;7.65;53.22;98488.56;4486029;32;19990;-85
2022/12/07 01:14:47;;;;;;;;;;;;;;;7.66;53.43;98498.09;4485851;32;19980;-84
2022/12/07 01:17:12;;;;;;;;;;;;;;;7.59;53.45;98491.47;4486139;32;20002;-85
2022/12/07 01:19:38;;;;;;;;;;;;;;;7.52;53.33;98490.06;4487229;32;20016;-85
2022/12/07 01:22:03;;;;;;;;;;;;;;;7.54;53.28;98490.81;4486972;32;19982;-85
2022/12/07 01:24:28;;;;;;;;;;;;;;;7.03;54.48;98490.53;4487127;32;19983;-86
2022/12/07 01:26:53;;;;;;;;;;;;;;;7.47;53.67;98495.53;4486942;32;20114;-85
2022/12/07 01:29:18;;;;;;;;;;;;;;;7.05;55.02;98486.06;4487080;32;20007;-85
2022/12/07 01:31:44;;;;;;;;;;;;;;;7.00;55.48;98485.44;4486180;32;19971;-85
2022/12/07 01:34:09;;;;;;;;;;;;;;;6.90;56.33;98489.38;4486995;32;20032;-84
2022/12/07 01:36:35;;;;;;;;;;;;;;;7.24;56.31;98480.84;4485777;32;19988;-85
2022/12/07 01:39:02;;;;;;;;;;;;;;;7.42;56.32;98475.69;4485795;32;19984;-85
2022/12/07 01:41:30;;;;;;;;;;;;;;;7.10;58.30;98478.00;4487045;31;19979;-85
2022/12/07 01:44:15;;;;;;;;;;;;;;;7.14;59.09;98479.56;4486758;31;20028;-84
2022/12/07 01:46:48;;;;;;;;;;;;;;;7.33;58.92;98486.59;4486865;31;20430;-85
2022/12/07 01:49:32;;;;;;;;;;;;;;;6.94;60.60;98484.87;4486804;31;19983;-85
2022/12/07 01:51:59;;;;;;;;;;;;;;;7.54;59.37;98479.50;4486793;32;20031;-86
2022/12/07 01:54:24;;;;;;;;;;;;;;;7.27;60.65;98480.69;4485502;32;19980;-85
2022/12/07 01:56:51;;;;;;;;;;;;;;;7.37;60.67;98477.66;4486712;32;20022;-85
2022/12/07 01:59:16;;;;;;;;;;;;;;;7.46;60.65;98466.75;4485601;32;20053;-85
2022/12/07 02:01:42;;;;;;;;;;;;;;;7.60;60.51;98469.56;4485520;32;19994;-85
2022/12/07 02:04:07;;;;;;;;;;;;;;;7.61;60.65;98471.28;4486629;32;19983;-85
2022/12/07 02:06:32;;;;;;;;;;;;;;;7.79;60.23;98463.44;4486549;32;19975;-85
2022/12/07 02:08:57;;;;;;;;;;;;;;;7.70;60.46;98466.50;4485403;32;20257;-85
2022/12/07 02:11:23;;;;;;;;;;;;;;;7.31;61.85;98459.59;4485473;32;20007;-85
2022/12/07 02:13:48;;;;;;;;;;;;;;;7.12;62.87;98467.47;4486439;32;19982;-85
2022/12/07 02:16:20;;;;;;;;;;;;;;;7.63;61.39;98471.16;4486367;31;20351;-84
2022/12/07 02:19:04;;;;;;;;;;;;;;;7.68;61.18;98456.94;4485316;32;19988;-84
2022/12/07 02:21:29;;;;;;;;;;;;;;;7.97;60.39;98459.06;4486532;32;20018;-84
2022/12/07 02:23:59;;;;;;;;;;;;;;;7.87;60.53;98461.28;4486316;32;19986;-84
2022/12/07 02:26:30;;;;;;;;;;;;;;;7.70;60.85;98458.62;4485337;32;20259;-84
2022/12/07 02:29:11;;;;;;;;;;;;;;;7.61;61.05;98460.78;4486536;32;20040;-84
2022/12/07 02:31:36;;;;;;;;;;;;;;;7.97;59.73;98457.28;4486324;31;20323;-85
2022/12/07 02:34:07;;;;;;;;;;;;;;;7.96;59.54;98458.22;4484921;32;19982;-84
2022/12/07 02:36:33;;;;;;;;;;;;;;;7.93;59.30;98463.59;4484850;32;19988;-85
2022/12/07 02:39:00;;;;;;;;;;;;;;;7.62;59.96;98459.00;4484886;32;20290;-86
2022/12/07 02:41:51;;;;;;;;;;;;;;;7.16;60.53;98464.62;4484976;32;19980;-86
2022/12/07 02:44:18;;;;;;;;;;;;;;;7.44;59.92;98456.34;4484530;32;20374;-86
2022/12/07 02:46:44;;;;;;;;;;;;;;;7.75;59.10;98462.75;4487574;32;20003;-83
2022/12/07 02:49:10;;;;;;;;;;;;;;;7.92;58.42;98455.81;4487420;32;20351;-84
2022/12/07 02:51:38;;;;;;;;;;;;;;;7.86;58.13;98463.06;4487402;32;20006;-83
2022/12/07 02:54:07;;;;;;;;;;;;;;;7.40;59.02;98464.44;4487459;32;20009;-83
2022/12/07 02:56:32;;;;;;;;;;;;;;;7.47;58.85;98460.56;4486851;32;19994;-85
2022/12/07 02:59:16;;;;;;;;;;;;;;;7.51;58.85;98454.25;4488404;32;19991;-84
2022/12/07 03:01:41;;;;;;;;;;;;;;;7.71;58.21;98458.56;4488124;32;19984;-85
2022/12/07 03:04:45;;;;;;;;;;;;;;;7.66;58.61;98452.69;4488279;32;20025;-84
2022/12/07 03:07:13;;;;;;;;;;;;;;;7.93;57.81;98449.66;4424091;32;20008;-84
2022/12/07 03:09:43;;;;;;;;;;;;;;;7.49;59.44;98453.47;4411307;32;20236;-84
2022/12/07 03:12:16;;;;;;;;;;;;;;;8.04;58.06;98447.34;4424176;32;19973;-84
2022/12/07 03:14:43;;;;;;;;;;;;;;;7.78;58.65;98446.00;4411322;32;20033;-83
2022/12/07 03:17:12;;;;;;;;;;;;;;;7.89;58.69;98441.09;4411227;32;20012;-84
2022/12/07 03:19:38;;;;;;;;;;;;;;;8.01;58.71;98437.84;4411166;32;20005;-84
2022/12/07 03:22:03;;;;;;;;;;;;;;;7.59;60.39;98444.28;4423855;32;20020;-85
2022/12/07 03:24:31;;;;;;;;;;;;;;;8.12;59.01;98429.44;4411140;32;20320;-85
2022/12/07 03:27:16;;;;;;;;;;;;;;;8.21;59.14;98426.38;4411163;32;19997;-86
2022/12/07 03:29:46;;;;;;;;;;;;;;;8.42;58.78;98427.06;4423305;32;19999;-85
2022/12/07 03:32:15;;;;;;;;;;;;;;;8.28;59.53;98437.38;4423650;32;20128;-84
2022/12/07 03:34:52;;;;;;;;;;;;;;;8.07;60.24;98437.56;4423558;32;20065;-85
2022/12/07 03:37:18;;;;;;;;;;;;;;;7.30;62.65;98448.25;4426115;32;20432;-84
2022/12/07 03:40:04;;;;;;;;;;;;;;;7.51;62.20;98462.13;4486910;32;19988;-84
2022/12/07 03:42:29;;;;;;;;;;;;;;;7.22;63.02;98459.13;4476743;32;19998;-84
2022/12/07 03:44:55;;;;;;;;;;;;;;;7.81;60.92;98462.44;4488094;31;20300;-84
2022/12/07 03:47:27;;;;;;;;;;;;;;;8.23;59.04;98457.78;4488148;31;19979;-84
2022/12/07 03:50:00;;;;;;;;;;;;;;;8.38;58.45;98450.88;4488179;31;19998;-84
2022/12/07 03:52:39;;;;;;;;;;;;;;;8.32;58.55;98453.81;4486968;32;20039;-84
2022/12/07 03:55:14;;;;;;;;;;;;;;;7.81;59.94;98456.34;4486297;32;19978;-84
2022/12/07 03:57:39;;;;;;;;;;;;;;;8.21;59.21;98460.47;4486886;32;19987;-84
2022/12/07 04:00:05;;;;;;;;;;;;;;;8.45;58.34;98460.19;4488113;32;20012;-84
2022/12/07 04:02:30;;;;;;;;;;;;;;;7.55;60.88;98468.06;4488073;31;19994;-84
2022/12/07 04:04:56;;;;;;;;;;;;;;;8.21;59.09;98467.50;4488157;32;19967;-85
2022/12/07 04:07:21;;;;;;;;;;;;;;;8.27;59.11;98459.31;4488093;31;19980;-84
2022/12/07 04:09:46;;;;;;;;;;;;;;;7.63;60.88;98464.19;4487920;32;19976;-84
2022/12/07 04:12:12;;;;;;;;;;;;;;;7.85;60.58;98468.37;4488093;31;20012;-84
2022/12/07 04:14:37;;;;;;;;;;;;;;;8.16;59.54;98472.97;4487978;32;19990;-84
2022/12/07 04:17:02;;;;;;;;;;;;;;;8.33;59.01;98460.78;4486669;32;19992;-84
2022/12/07 04:19:29;;;;;;;;;;;;;;;8.24;59.07;98467.34;4488042;32;20292;-84
2022/12/07 04:21:54;;;;;;;;;;;;;;;8.28;59.07;98467.09;4487969;31;19991;-84
2022/12/07 04:24:20;;;;;;;;;;;;;;;8.26;59.35;98461.06;4487957;31;20040;-83
2022/12/07 04:26:45;;;;;;;;;;;;;;;8.44;59.01;98466.34;4487907;31;20017;-84
2022/12/07 04:29:10;;;;;;;;;;;;;;;8.51;58.93;98469.53;4487831;31;19979;-86
2022/12/07 04:31:36;;;;;;;;;;;;;;;8.46;59.06;98469.78;4487922;32;19991;-86
2022/12/07 04:34:01;;;;;;;;;;;;;;;8.53;58.90;98472.91;4487853;31;19983;-85
2022/12/07 04:36:27;;;;;;;;;;;;;;;8.58;58.87;98463.03;4487680;31;20271;-84
2022/12/07 04:38:55;;;;;;;;;;;;;;;8.43;59.00;98465.50;4487878;32;19972;-84
2022/12/07 04:41:26;;;;;;;;;;;;;;;8.51;58.91;98464.28;4486690;32;19975;-84
2022/12/07 04:43:52;;;;;;;;;;;;;;;8.58;58.93;98452.53;4487704;31;19968;-83
2022/12/07 04:46:17;;;;;;;;;;;;;;;8.58;58.95;98463.03;4487882;31;20247;-84
2022/12/07 04:48:42;;;;;;;;;;;;;;;8.55;59.27;98469.28;4486554;32;20271;-85
2022/12/07 04:51:08;;;;;;;;;;;;;;;8.37;59.27;98475.44;4487583;32;19972;-84
2022/12/07 04:53:33;;;;;;;;;;;;;;;8.03;60.30;98475.34;4487654;32;19986;-84
2022/12/07 04:55:58;;;;;;;;;;;;;;;8.39;59.53;98473.59;4486405;32;20035;-84
2022/12/07 04:58:24;;;;;;;;;;;;;;;8.40;59.71;98480.53;4487739;31;20020;-85
2022/12/07 05:00:49;;;;;;;;;;;;;;;8.35;59.67;98475.53;4487627;32;20019;-84
2022/12/07 05:03:14;;;;;;;;;;;;;;;7.79;60.66;98471.31;4487597;32;20333;-84
2022/12/07 05:05:40;;;;;;;;;;;;;;;8.16;59.87;98472.12;4487619;32;20007;-84
2022/12/07 05:08:05;;;;;;;;;;;;;;;8.32;59.67;98462.53;4485010;32;20455;-83
2022/12/07 05:10:31;;;;;;;;;;;;;;;8.13;60.20;98462.66;4487647;32;19979;-83
2022/12/07 05:12:56;;;;;;;;;;;;;;;8.22;59.90;98456.91;4487501;32;20313;-83
2022/12/07 05:15:21;;;;;;;;;;;;;;;8.31;59.88;98450.38;4486180;32;20259;-83
2022/12/07 05:17:46;;;;;;;;;;;;;;;8.19;60.09;98448.34;4487543;32;19976;-84
2022/12/07 05:20:12;;;;;;;;;;;;;;;7.50;62.55;98454.34;4487494;32;19990;-84
2022/12/07 05:22:37;;;;;;;;;;;;;;;7.36;63.17;98452.38;4487358;32;19963;-84
2022/12/07 05:25:02;;;;;;;;;;;;;;;7.72;62.14;98434.03;4487172;32;19980;-83
2022/12/07 05:27:27;;;;;;;;;;;;;;;7.27;63.16;98437.94;4487424;31;19984;-83
2022/12/07 05:29:53;;;;;;;;;;;;;;;7.45;63.07;98444.06;4485811;32;19990;-82
2022/12/07 05:32:18;;;;;;;;;;;;;;;7.65;62.24;98446.59;4487002;32;19983;-83
2022/12/07 05:34:43;;;;;;;;;;;;;;;7.52;62.65;98449.88;4485758;32;19984;-83
2022/12/07 05:37:08;;;;;;;;;;;;;;;7.59;62.43;98452.16;4486873;32;19976;-83
2022/12/07 05:39:34;;;;;;;;;;;;;;;7.27;63.65;98446.63;4486922;32;20327;-82
2022/12/07 05:42:14;;;;;;;;;;;;;;;7.55;62.65;98450.59;4472626;32;20007;-82
2022/12/07 05:44:40;;;;;;;;;;;;;;;7.37;63.44;98451.44;4486710;32;20007;-82
2022/12/07 05:47:05;;;;;;;;;;;;;;;7.40;62.97;98446.09;4485749;32;19998;-83
2022/12/07 05:49:30;;;;;;;;;;;;;;;7.04;63.83;98447.69;4486926;31;19972;-83
2022/12/07 05:51:56;;;;;;;;;;;;;;;7.26;63.66;98446.69;4486717;32;19968;-83
2022/12/07 05:54:21;;;;;;;;;;;;;;;7.43;62.80;98448.53;4485527;32;19991;-83
2022/12/07 05:56:46;;;;;;;;;;;;;;;7.51;62.71;98456.03;4486675;31;20023;-83
2022/12/07 05:59:23;;;;;;;;;;;;;;;7.01;64.37;98454.84;4486765;32;19979;-83
2022/12/07 06:01:49;;;;;;;;;;;;;;;7.31;63.20;98454.37;4485684;32;20012;-84
2022/12/07 06:04:14;;;;;;;;;;;;;;;7.52;62.66;98449.88;4486614;32;20266;-84
2022/12/07 06:06:39;;;;;;;;;;;;;;;7.78;62.08;98453.87;4486798;32;20025;-84
2022/12/07 06:09:04;;;;;;;;;;;;;;;7.77;62.13;98455.66;4485394;32;19996;-84
2022/12/07 06:14:13;;;;;;;;;;;;;;;7.97;61.43;98451.19;4486645;32;20270;-84
2022/12/07 06:16:39;;;;;;;;;;;;;;;7.94;61.41;98457.44;4486401;31;19980;-84
2022/12/07 06:19:04;;;;;;;;;;;;;;;8.06;61.24;98461.25;4487561;31;19975;-84
2022/12/07 06:21:29;;;;;;;;;;;;;;;7.20;63.64;98460.94;4488333;32;20007;-84
2022/12/07 06:23:54;;;;;;;;;;;;;;;7.52;62.34;98460.38;4488336;32;20043;-84
2022/12/07 06:26:20;;;;;;;;;;;;;;;7.88;61.67;98460.38;4487139;32;20026;-84
2022/12/07 06:28:45;;;;;;;;;;;;;;;7.78;61.87;98459.09;4487114;32;19980;-84
2022/12/07 06:31:11;;;;;;;;;;;;;;;7.68;62.39;98453.47;4488414;32;20247;-83
2022/12/07 06:33:36;;;;;;;;;;;;;;;7.52;62.91;98460.38;4488387;31;20015;-84
2022/12/07 06:36:01;;;;;;;;;;;;;;;7.18;64.10;98459.31;4488336;32;19968;-84
2022/12/07 06:38:26;;;;;;;;;;;;;;;7.40;63.36;98457.41;4487247;32;19986;-84
2022/12/07 06:40:52;;;;;;;;;;;;;;;7.34;63.88;98468.19;4488453;32;20003;-85
2022/12/07 06:43:17;;;;;;;;;;;;;;;7.51;63.56;98472.59;4488272;31;19997;-83
2022/12/07 06:45:42;;;;;;;;;;;;;;;7.58;63.26;98470.56;4494013;31;19975;-84
2022/12/07 06:48:07;;;;;;;;;;;;;;;7.43;63.88;98472.97;4473919;32;19988;-85
2022/12/07 06:50:33;;;;;;;;;;;;;;;7.48;63.60;98465.75;4488193;32;19975;-84
2022/12/07 06:52:58;;;;;;;;;;;;;;;7.37;64.13;98477.66;4488033;32;20248;-84
2022/12/07 06:55:23;;;;;;;;;;;;;;;7.44;63.84;98472.06;4473804;32;19980;-85
2022/12/07 06:57:48;;;;;;;;;;;;;;;7.32;64.28;98474.38;4488095;32;19979;-85
2022/12/07 07:00:14;;;;;;;;;;;;;;;7.05;64.97;98472.97;4488060;32;19976;-84
2022/12/07 07:02:39;;;;;;;;;;;;;;;6.94;65.37;98477.00;4473800;32;20029;-81
2022/12/07 07:05:05;;;;;;;;;;;;;;;7.14;64.66;98474.31;4487895;32;19985;-83
2022/12/07 07:07:30;;;;;;;;;;;;;;;6.87;65.70;98476.41;4486147;32;19984;-81
2022/12/07 07:09:55;;;;;;;;;;;;;;;6.27;67.59;98473.78;4472596;32;19998;-84
2022/12/07 07:12:20;;;;;;;;;;;;;;;6.77;66.50;98480.38;4486381;32;20024;-83
2022/12/07 07:14:46;;;;;;;;;;;;;;;6.86;66.14;98475.56;4473084;32;19984;-81
2022/12/07 07:17:11;;;;;;;;;;;;;;;6.68;66.63;98473.75;4459806;32;20326;-79
2022/12/07 07:19:37;;;;;;;;;;;;;;;6.94;65.76;98475.22;4487581;32;19979;-83
2022/12/07 07:22:03;;;;;;;;;;;;;;;6.20;68.58;98482.78;4487317;32;19998;-81
2022/12/07 07:24:28;;;;;;;;;;;;;;;7.07;65.61;98481.63;4473910;32;19984;-82
2022/12/07 07:26:53;;;;;;;;;;;;;;;6.82;65.16;98486.25;4488387;32;20020;-81
2022/12/07 07:29:18;;;;;;;;;;;;;;;6.61;65.83;98488.88;4497135;31;19983;-84
2022/12/07 07:31:43;;;;;;;;;;;;;;;6.75;65.86;98490.91;4501216;31;19998;-85
2022/12/07 07:34:09;;;;;;;;;;;;;;;7.05;64.59;98480.84;4474671;31;19987;-90
2022/12/07 07:36:34;;;;;;;;;;;;;;;6.56;66.35;98487.38;4487995;31;19971;-81
2022/12/07 07:38:59;;;;;;;;;;;;;;;7.36;63.70;98482.06;4503484;31;20317;-83
2022/12/07 07:41:24;;;;;;;;;;;;;;;7.00;64.38;98479.34;4503485;31;19995;-82
2022/12/07 07:43:50;;;;;;;;;;;;;;;7.29;63.93;98478.00;4503231;31;20007;-82
2022/12/07 07:46:15;;;;;;;;;;;;;;;7.33;63.98;98476.94;4503708;31;19979;-84
2022/12/07 07:48:40;;;;;;;;;;;;;;;7.59;63.00;98469.63;4503926;31;20208;-83
2022/12/07 07:51:06;;;;;;;;;;;;;;;7.44;63.71;98472.06;4489473;31;19980;-84
2022/12/07 07:53:32;;;;;;;;;;;;;;;7.46;62.96;98477.25;4503959;31;20251;-83
2022/12/07 07:55:58;;;;;;;;;;;;;;;6.73;65.16;98481.41;4503829;31;19976;-83
2022/12/07 07:58:23;;;;;;;;;;;;;;;7.32;63.30;98484.87;4503964;31;19959;-83
2022/12/07 08:00:48;;;;;;;;;;;;;;;7.15;63.39;98480.44;4476207;31;19994;-84
2022/12/07 08:03:13;;;;;;;;;;;;;;;7.05;63.74;98478.22;4489382;31;20066;-90
2022/12/07 08:05:38;;;;;;;;;;;;;;;7.40;62.14;98474.91;4503593;31;20002;-84
2022/12/07 08:08:04;;;;;;;;;;;;;;;7.26;62.06;98478.16;4489153;31;19982;-84
2022/12/07 08:10:31;;;;;;;;;;;;;;;6.59;63.98;98484.66;4503514;31;20009;-84
2022/12/07 08:13:13;;;;;;;;;;;;;;;6.42;63.98;98480.97;4503644;31;19998;-88
2022/12/07 08:15:39;;;;;;;;;;;;;;;7.36;61.98;98491.66;4503472;31;20410;-88
2022/12/07 08:18:04;;;;;;;;;;;;;;;7.66;61.24;98487.59;4503441;31;19974;-84
2022/12/07 08:20:30;;;;;;;;;;;;;;;7.40;61.43;98501.13;4503484;31;20026;-85
2022/12/07 08:22:55;;;;;;;;;;;;;;;7.41;61.58;98500.19;4503510;31;20015;-85
2022/12/07 08:25:22;;;;;;;;;;;;;;;7.39;61.70;98492.37;4503502;31;19976;-84
2022/12/07 08:27:47;;;;;;;;;;;;;;;7.21;61.89;98488.00;4489243;31;19968;-84
2022/12/07 08:30:12;;;;;;;;;;;;;;;7.15;62.16;98488.28;4489041;31;20016;-85
2022/12/07 08:32:37;;;;;;;;;;;;;;;6.89;62.84;98512.09;4503378;31;19987;-85
2022/12/07 08:35:03;;;;;;;;;;;;;;;7.17;62.50;98499.53;4503434;31;20020;-85
2022/12/07 08:37:28;;;;;;;;;;;;;;;6.82;64.57;98508.06;4488997;31;19967;-85
2022/12/07 08:39:54;;;;;;;;;;;;;;;6.87;64.24;98498.19;4503346;31;19975;-85
2022/12/07 08:42:19;;;;;;;;;;;;;;;7.18;63.10;98498.59;4503098;31;19980;-84
2022/12/07 08:44:45;;;;;;;;;;;;;;;7.07;63.20;98509.59;4488956;31;19987;-84
2022/12/07 08:47:10;;;;;;;;;;;;;;;6.80;63.56;98507.28;4489250;31;19972;-85
2022/12/07 08:49:36;;;;;;;;;;;;;;;7.46;61.79;98504.28;4489137;31;19983;-85
2022/12/07 08:52:02;;;;;;;;;;;;;;;6.93;63.45;98523.28;4489141;31;20315;-85
2022/12/07 08:54:27;;;;;;;;;;;;;;;7.45;62.17;98509.59;4503463;31;20009;-85
2022/12/07 08:56:53;;;;;;;;;;;;;;;7.41;62.07;98508.03;4488705;31;19976;-85
2022/12/07 08:59:18;;;;;;;;;;;;;;;7.18;62.74;98514.31;4488761;31;19988;-85
2022/12/07 09:01:43;;;;;;;;;;;;;;;7.27;61.86;98506.06;4503123;31;19991;-84
2022/12/07 09:04:08;;;;;;;;;;;;;;;7.33;61.96;98512.78;4503269;31;19976;-85
2022/12/07 09:06:34;;;;;;;;;;;;;;;7.50;61.60;98509.41;4503061;31;19976;-85
2022/12/07 09:08:59;;;;;;;;;;;;;;;8.01;60.30;98513.91;4503199;31;20311;-85
2022/12/07 09:11:24;;;;;;;;;;;;;;;7.61;60.65;98512.34;4488743;31;20277;-85
2022/12/07 09:13:50;;;;;;;;;;;;;;;7.35;61.97;98514.41;4488683;31;20279;-85
2022/12/07 09:16:15;;;;;;;;;;;;;;;7.46;61.65;98500.81;4503111;31;19971;-85
2022/12/07 09:18:41;;;;;;;;;;;;;;;7.50;60.91;98515.47;4475404;31;20006;-85
2022/12/07 09:21:06;;;;;;;;;;;;;;;7.72;60.50;98501.38;4503134;31;19997;-85
2022/12/07 09:23:32;;;;;;;;;;;;;;;7.67;59.51;98494.56;4502988;31;19968;-85
2022/12/07 09:26:00;;;;;;;;;;;;;;;7.53;60.08;98490.88;4502757;31;19967;-84
2022/12/07 09:28:25;;;;;;;;;;;;;;;7.38;59.90;98492.44;4502863;31;20327;-84
2022/12/07 09:30:51;;;;;;;;;;;;;;;7.19;60.02;98493.31;4502973;31;19991;-85
2022/12/07 09:33:16;;;;;;;;;;;;;;;7.19;60.06;98489.84;4502876;31;19979;-85
2022/12/07 09:35:48;;;;;;;;;;;;;;;7.36;59.67;98489.03;4502756;31;19982;-85
2022/12/07 09:38:13;;;;;;;;;;;;;;;7.42;59.97;98499.28;4475401;31;19987;-85
2022/12/07 09:40:39;;;;;;;;;;;;;;;8.08;58.85;98480.38;4488534;31;20072;-85
2022/12/07 09:43:04;;;;;;;;;;;;;;;7.64;59.42;98484.22;4502718;31;20019;-85
2022/12/07 09:45:33;;;;;;;;;;;;;;;7.43;60.27;98482.59;4502644;31;19963;-85
2022/12/07 09:47:59;;;;;;;;;;;;;;;7.51;59.14;98483.09;4502638;31;20039;-85
2022/12/07 09:50:25;;;;;;;;;;;;;;;7.06;60.78;98484.31;4502785;31;19971;-85
2022/12/07 09:52:50;;;;;;;;;;;;;;;7.90;58.24;98478.63;4503530;31;20046;-85
2022/12/07 09:55:17;;;;;;;;;;;;;;;8.00;57.52;98479.91;4507764;31;19977;-85
2022/12/07 09:57:43;;;;;;;;;;;;;;;7.53;59.50;98475.16;4493544;31;19987;-85
2022/12/07 10:00:16;;;;;;;;;;;;;;;8.02;57.85;98467.56;4493484;31;19979;-85
2022/12/07 10:02:43;;;;;;;;;;;;;;;8.44;57.06;98467.22;4507964;31;20343;-85
2022/12/07 10:05:13;;;;;;;;;;;;;;;8.60;56.05;98469.91;4507770;31;19979;-85
2022/12/07 10:07:38;;;;;;;;;;;;;;;8.40;57.04;98470.91;4493564;31;20324;-85
2022/12/07 10:10:13;;;;;;;;;;;;;;;8.62;57.07;98473.28;4493516;31;19979;-85
2022/12/07 10:12:55;;;;;;;;;;;;;;;8.87;56.48;98472.03;4493364;31;19993;-85
2022/12/07 10:15:20;;;;;;;;;;;;;;;8.81;56.86;98462.69;4507559;31;20003;-85
2022/12/07 10:17:49;;;;;;;;;;;;;;;8.82;56.51;98451.22;4507595;31;19980;-85
2022/12/07 10:20:16;;;;;;;;;;;;;;;8.38;57.49;98454.37;4493163;31;20028;-86
2022/12/07 10:23:01;;;;;;;;;;;;;;;8.48;57.39;98464.41;4493275;31;20315;-85
2022/12/07 10:25:27;;;;;;;;;;;;;;;8.76;56.26;98458.59;4493120;31;20356;-85
2022/12/07 10:28:02;;;;;;;;;;;;;;;8.70;55.82;98465.03;4507575;31;20038;-85
2022/12/07 10:30:27;;;;;;;;;;;;;;;8.98;54.55;98455.69;4507378;31;19983;-85
2022/12/07 10:32:52;;;;;;;;;;;;;;;8.62;55.36;98464.56;4493041;31;20213;-85
2022/12/07 10:35:19;;;;;;;;;;;;;;;8.13;56.05;98461.78;4507275;31;19979;-85
2022/12/07 10:37:45;;;;;;;;;;;;;;;8.53;55.78;98449.28;4492934;31;20026;-85
2022/12/07 10:40:27;;;;;;;;;;;;;;;8.87;55.56;98445.75;4507072;31;20019;-85
2022/12/07 10:43:08;;;;;;;;;;;;;;;9.18;54.54;98439.69;4492974;31;19979;-86
2022/12/07 10:45:34;;;;;;;;;;;;;;;8.77;54.93;98445.41;4507003;31;20391;-85
2022/12/07 10:48:02;;;;;;;;;;;;;;;8.91;54.87;98447.28;4492845;31;19983;-85
2022/12/07 10:50:45;;;;;;;;;;;;;;;8.48;55.63;98457.41;4492784;31;19983;-85
2022/12/07 10:53:29;;;;;;;;;;;;;;;9.10;55.27;98455.03;4507124;31;19985;-85
2022/12/07 10:56:07;;;;;;;;;;;;;;;9.01;54.55;98450.28;4506948;31;19971;-85
2022/12/07 10:58:47;;;;;;;;;;;;;;;9.31;54.10;98444.28;4492496;31;20040;-85
2022/12/07 11:01:21;;;;;;;;;;;;;;;9.06;54.78;98450.88;4506876;31;20006;-85
2022/12/07 11:04:05;;;;;;;;;;;;;;;8.78;55.20;98444.44;4506731;31;20020;-85
2022/12/07 11:06:33;;;;;;;;;;;;;;;8.80;54.89;98441.75;4489648;31;20016;-85
2022/12/07 11:09:17;;;;;;;;;;;;;;;9.20;53.73;98443.09;4489524;31;20047;-85
2022/12/07 11:11:45;;;;;;;;;;;;;;;8.81;54.77;98438.22;4504217;31;19998;-86
2022/12/07 11:14:20;;;;;;;;;;;;;;;8.51;55.49;98440.66;4489915;31;19979;-85
2022/12/07 11:17:05;;;;;;;;;;;;;;;9.15;54.74;98428.50;4504007;31;20743;-85
2022/12/07 11:19:40;;;;;;;;;;;;;;;9.27;54.05;98429.59;4504007;31;20002;-85
2022/12/07 11:22:08;;;;;;;;;;;;;;;9.17;54.75;98429.25;4503830;31;19980;-86
2022/12/07 11:24:43;;;;;;;;;;;;;;;8.38;55.71;98435.12;4503996;31;20307;-85
2022/12/07 11:27:27;;;;;;;;;;;;;;;8.49;55.66;98434.62;4503865;31;20069;-86
2022/12/07 11:30:11;;;;;;;;;;;;;;;8.62;55.56;98433.91;4489467;31;20334;-85
2022/12/07 11:32:42;;;;;;;;;;;;;;;9.42;53.90;98423.50;4504247;31;20014;-85
2022/12/07 11:35:07;;;;;;;;;;;;;;;9.49;53.29;98419.59;4503796;31;19971;-85
2022/12/07 11:37:33;;;;;;;;;;;;;;;9.05;54.10;98430.78;4503791;31;19981;-85
2022/12/07 11:40:00;;;;;;;;;;;;;;;9.13;53.94;98425.94;4503726;31;19993;-86
2022/12/07 11:42:26;;;;;;;;;;;;;;;9.50;53.31;98428.31;4489383;31;20069;-86
2022/12/07 11:44:54;;;;;;;;;;;;;;;9.61;53.55;98426.78;4489251;31;19979;-85
2022/12/07 11:47:26;;;;;;;;;;;;;;;9.61;53.25;98420.69;4503772;31;20224;-86
2022/12/07 11:50:00;;;;;;;;;;;;;;;9.18;53.62;98437.06;4489532;31;19987;-85
2022/12/07 11:52:35;;;;;;;;;;;;;;;9.42;54.04;98436.63;4503604;31;19993;-85
2022/12/07 11:55:00;;;;;;;;;;;;;;;9.16;54.67;98436.31;4489140;31;19986;-86
2022/12/07 11:57:28;;;;;;;;;;;;;;;9.47;54.16;98429.34;4489216;31;19975;-85
2022/12/07 11:59:56;;;;;;;;;;;;;;;9.68;54.05;98431.69;4489247;31;20323;-85
2022/12/07 12:02:37;;;;;;;;;;;;;;;8.99;55.90;98426.69;4476036;31;19988;-86
2022/12/07 12:05:06;;;;;;;;;;;;;;;9.59;53.96;98415.50;4476240;31;19989;-86
2022/12/07 12:07:31;;;;;;;;;;;;;;;8.42;57.40;98420.97;4489329;31;19989;-86
2022/12/07 12:10:05;;;;;;;;;;;;;;;9.26;54.68;98410.38;4489158;31;20007;-85
2022/12/07 12:12:39;;;;;;;;;;;;;;;9.59;53.67;98407.63;4489352;31;20003;-86
2022/12/07 12:15:04;;;;;;;;;;;;;;;9.75;53.31;98402.31;4503455;31;20380;-86
2022/12/07 12:17:32;;;;;;;;;;;;;;;9.59;53.50;98394.47;4488616;31;20125;-85
2022/12/07 12:19:58;;;;;;;;;;;;;;;9.79;53.09;98395.97;4503474;31;19998;-86
2022/12/07 12:22:24;;;;;;;;;;;;;;;9.80;53.21;98391.56;4503556;31;19983;-86
2022/12/07 12:24:50;;;;;;;;;;;;;;;9.74;52.79;98384.03;4489296;31;20086;-86
2022/12/07 12:27:26;;;;;;;;;;;;;;;9.44;52.71;98382.19;4489105;31;19997;-86
2022/12/07 12:29:53;;;;;;;;;;;;;;;9.58;52.26;98377.00;4488991;31;19983;-85
2022/12/07 12:32:22;;;;;;;;;;;;;;;9.68;52.19;98377.34;4489082;31;19988;-86
2022/12/07 12:34:47;;;;;;;;;;;;;;;9.38;52.61;98382.53;4488958;31;19980;-86
2022/12/07 12:37:31;;;;;;;;;;;;;;;9.23;53.13;98377.22;4503366;31;19968;-85
2022/12/07 12:40:14;;;;;;;;;;;;;;;9.54;52.71;98377.25;4503285;31;19980;-86
2022/12/07 12:42:53;;;;;;;;;;;;;;;9.21;52.89;98380.84;4503449;31;19979;-86
2022/12/07 12:45:18;;;;;;;;;;;;;;;9.43;52.33;98365.56;4488790;31;19975;-86
2022/12/07 12:48:04;;;;;;;;;;;;;;;9.43;52.83;98368.22;4503276;31;19960;-85
2022/12/07 12:50:31;;;;;;;;;;;;;;;9.36;52.84;98379.16;4502769;31;19990;-86
2022/12/07 12:53:18;;;;;;;;;;;;;;;9.34;52.95;98376.59;4489032;31;19999;-85
2022/12/07 12:55:46;;;;;;;;;;;;;;;9.64;52.26;98373.19;4503091;31;19967;-86
2022/12/07 12:58:17;;;;;;;;;;;;;;;9.51;52.55;98373.03;4488812;31;19971;-86
2022/12/07 13:00:43;;;;;;;;;;;;;;;9.69;52.56;98380.81;4503216;31;19988;-86
2022/12/07 13:03:16;;;;;;;;;;;;;;;9.65;52.41;98386.22;4503217;31;20024;-85
2022/12/07 13:05:42;;;;;;;;;;;;;;;9.48;52.76;98385.50;4488662;31;20023;-86